Val-David, Canada
Current Conditions -  °F | °C
As of 1:00 PM on Monday 26 Jan 2015 (Local Time) from CYMX Reporting Station
Broken Clouds Broken Clouds  
Wind Chill: -9°   Ceiling: 25000
Heat Index:   Visibility: 45mi
Dew Point: -11°   Wind: 7mph
Humidity: 51%   Direction: 70°ENE
Pressure: 30.21"   Gusts: NA
Location:  46.03°N, 74.2°W
Report Text: CYMX 261800Z 07006KT 030V100 45SM FEW160 BKN250 M16/M24 A3021 RMK AC1CI4 SLP239
Loading
Personal Weather Stations






























Interactive Weather Map New forecast layout! Learn more

10-Day Weather Forecast

Advertisements
Track Severe Weather on mobile